Time;durP1;ratioP1;P1;durP2;ratioP2;P2;SDS_P1;SDS_P2;PMS_P1;PMS_P2;Temp;Humidity;BMP_temperature;BMP_pressure;BME280_temperature;BME280_humidity;BME280_pressure;Samples;Min_cycle;Max_cycle;Signal;HPM_P1;HPM_P2
2022/05/30 00:01:55;;;;;;;13.23;3.17;;;14.70;73.60;;;;;;5104753;28;20054;-72
2022/05/30 00:04:21;;;;;;;10.05;3.13;;;14.80;73.70;;;;;;5106742;28;20023;-70
2022/05/30 00:06:48;;;;;;;12.77;3.47;;;14.70;73.50;;;;;;5105635;28;20058;-72
2022/05/30 00:09:14;;;;;;;10.15;2.78;;;14.70;73.50;;;;;;5083973;28;20052;-67
2022/05/30 00:11:41;;;;;;;9.05;2.65;;;14.70;73.50;;;;;;5101535;28;20525;-67
2022/05/30 00:14:08;;;;;;;7.75;2.97;;;14.60;73.50;;;;;;5102026;28;20019;-67
2022/05/30 00:16:34;;;;;;;13.07;3.22;;;14.60;73.40;;;;;;5101159;28;20359;-66
2022/05/30 00:19:01;;;;;;;7.03;3.20;;;14.60;73.40;;;;;;5077766;28;20926;-65
2022/05/30 00:21:27;;;;;;;9.30;2.47;;;14.60;73.50;;;;;;5102608;28;20502;-65
2022/05/30 00:23:54;;;;;;;7.60;4.03;;;14.60;73.50;;;;;;5107298;28;20035;-65
2022/05/30 00:26:23;;;;;;;5.72;2.95;;;14.60;73.50;;;;;;5102947;28;20072;-65
2022/05/30 00:28:50;;;;;;;6.35;2.75;;;14.60;73.60;;;;;;5104775;28;20016;-65
2022/05/30 00:31:18;;;;;;;10.32;3.25;;;14.50;73.60;;;;;;5100465;28;20024;-66
2022/05/30 00:33:46;;;;;;;10.15;3.63;;;14.50;73.60;;;;;;5082125;28;20584;-68
2022/05/30 00:36:12;;;;;;;7.78;3.00;;;14.50;73.60;;;;;;5098583;28;20165;-66
2022/05/30 00:38:39;;;;;;;7.55;3.13;;;14.50;73.60;;;;;;5103725;28;20024;-65
2022/05/30 00:41:06;;;;;;;9.35;2.58;;;14.50;73.80;;;;;;5102310;28;20045;-65
2022/05/30 00:43:37;;;;;;;7.22;3.08;;;14.50;73.80;;;;;;5099237;28;20020;-65
2022/05/30 00:46:12;;;;;;;5.40;2.25;;;14.50;73.70;;;;;;5104545;28;20038;-73
2022/05/30 00:48:45;;;;;;;8.30;2.42;;;14.50;73.80;;;;;;5100816;28;20023;-69
2022/05/30 00:51:15;;;;;;;9.48;3.35;;;14.40;73.60;;;;;;5099786;28;20035;-70
2022/05/30 00:53:45;;;;;;;6.68;2.50;;;14.40;73.60;;;;;;5101758;28;20102;-64
2022/05/30 00:56:13;;;;;;;5.38;2.25;;;14.40;73.60;;;;;;5098705;28;20028;-68
2022/05/30 00:58:46;;;;;;;13.43;3.42;;;14.40;73.60;;;;;;5102500;28;20031;-70
2022/05/30 01:01:14;;;;;;;7.70;2.78;;;14.40;73.80;;;;;;5101287;28;20112;-66
2022/05/30 01:06:31;;;;;;;7.93;3.08;;;14.30;73.50;;;;;;5100815;28;20086;-69
2022/05/30 01:09:00;;;;;;;7.82;3.20;;;14.30;73.60;;;;;;5097238;28;20032;-65
2022/05/30 01:11:26;;;;;;;10.45;3.13;;;14.30;73.70;;;;;;5098806;28;20497;-64
2022/05/30 01:13:53;;;;;;;6.75;2.70;;;14.30;73.70;;;;;;5096931;28;20027;-68
2022/05/30 01:16:20;;;;;;;9.77;2.70;;;14.30;73.80;;;;;;5100162;28;20039;-66
2022/05/30 01:18:54;;;;;;;8.30;2.85;;;14.30;73.80;;;;;;5101885;28;20024;-73
2022/05/30 01:21:41;;;;;;;7.50;3.05;;;14.30;73.90;;;;;;5101332;28;20125;-64
2022/05/30 01:24:47;;;;;;;4.88;2.60;;;14.30;73.70;;;;;;5100902;28;20030;-67
2022/05/30 01:27:42;;;;;;;10.30;2.97;;;14.30;73.70;;;;;;5063348;28;20076;-75
2022/05/30 01:30:14;;;;;;;8.18;2.85;;;14.20;73.70;;;;;;5062014;28;20036;-74
2022/05/30 01:32:41;;;;;;;7.68;2.25;;;14.20;73.70;;;;;;5100934;28;20028;-74
2022/05/30 01:35:09;;;;;;;6.30;2.63;;;14.20;73.70;;;;;;5098772;28;20046;-75
2022/05/30 01:37:36;;;;;;;8.48;3.47;;;14.20;73.70;;;;;;5099802;28;20092;-73
2022/05/30 01:40:02;;;;;;;7.93;3.17;;;14.20;73.70;;;;;;5100217;28;20246;-74
2022/05/30 01:42:29;;;;;;;5.85;3.05;;;14.20;73.50;;;;;;5106371;28;20016;-73
2022/05/30 01:44:55;;;;;;;8.90;3.45;;;14.20;73.40;;;;;;5099994;28;20044;-71
2022/05/30 01:47:22;;;;;;;7.75;2.72;;;14.20;73.40;;;;;;5103221;28;20020;-75
2022/05/30 01:49:48;;;;;;;9.35;2.90;;;14.10;73.30;;;;;;5105135;28;20019;-73
2022/05/30 01:52:15;;;;;;;7.03;2.67;;;14.10;73.30;;;;;;5105563;28;20023;-71
2022/05/30 01:54:41;;;;;;;6.57;2.38;;;14.10;73.30;;;;;;5104208;28;20505;-73
2022/05/30 01:57:08;;;;;;;11.38;3.65;;;14.10;73.30;;;;;;5101376;28;20033;-75
2022/05/30 01:59:34;;;;;;;10.15;2.28;;;14.10;73.30;;;;;;5100379;28;20097;-71
2022/05/30 02:02:01;;;;;;;11.73;3.03;;;14.10;73.30;;;;;;5105878;28;20080;-73
2022/05/30 02:04:27;;;;;;;9.85;4.47;;;14.10;73.30;;;;;;5106533;28;20026;-71
2022/05/30 02:06:53;;;;;;;9.30;3.28;;;14.00;73.30;;;;;;5107514;28;20023;-71
2022/05/30 02:09:20;;;;;;;9.00;3.40;;;14.00;73.10;;;;;;5103494;28;20026;-74
2022/05/30 02:11:46;;;;;;;11.27;2.58;;;14.00;73.10;;;;;;5102262;28;20026;-74
2022/05/30 02:14:13;;;;;;;12.98;4.15;;;14.00;73.00;;;;;;5107541;28;20016;-74
2022/05/30 02:19:24;;;;;;;12.25;3.78;;;14.00;73.20;;;;;;5100080;28;20064;-73
2022/05/30 02:21:50;;;;;;;8.75;3.88;;;13.90;73.10;;;;;;5105711;28;20020;-68
2022/05/30 02:24:17;;;;;;;17.15;3.63;;;13.90;73.10;;;;;;5103638;28;20029;-73
2022/05/30 02:26:44;;;;;;;8.00;3.38;;;13.90;73.20;;;;;;5105695;28;20054;-70
2022/05/30 02:29:10;;;;;;;5.07;3.38;;;13.90;73.10;;;;;;5107970;28;20016;-74
2022/05/30 02:31:37;;;;;;;16.23;3.38;;;13.90;73.30;;;;;;5103839;28;20033;-75
2022/05/30 02:36:49;;;;;;;7.72;3.63;;;13.80;73.40;;;;;;5106419;28;20059;-74
2022/05/30 02:39:19;;;;;;;7.40;2.90;;;13.80;73.40;;;;;;5105569;28;20371;-70
2022/05/30 02:41:46;;;;;;;8.70;2.95;;;13.80;73.50;;;;;;5105109;28;20027;-73
2022/05/30 02:44:20;;;;;;;8.73;2.78;;;13.80;73.50;;;;;;5105353;28;20121;-71
2022/05/30 02:47:00;;;;;;;12.13;4.07;;;13.80;73.30;;;;;;5087000;28;20023;-73
2022/05/30 02:49:27;;;;;;;11.10;3.05;;;13.80;73.30;;;;;;5099579;28;20027;-73
2022/05/30 02:51:55;;;;;;;13.18;3.97;;;13.80;73.10;;;;;;5105227;28;20303;-74
2022/05/30 02:54:22;;;;;;;9.07;4.68;;;13.70;73.00;;;;;;5108802;28;20074;-73
2022/05/30 02:56:50;;;;;;;8.48;4.15;;;13.70;73.10;;;;;;5103383;28;20035;-72
2022/05/30 02:59:17;;;;;;;7.60;5.00;;;13.70;73.20;;;;;;5101927;28;20016;-75
2022/05/30 03:01:44;;;;;;;9.98;4.53;;;13.70;73.30;;;;;;5103076;28;20059;-74
2022/05/30 03:04:11;;;;;;;6.15;4.57;;;13.70;73.30;;;;;;5105416;28;20026;-74
2022/05/30 03:06:38;;;;;;;12.13;4.78;;;13.70;73.20;;;;;;5101333;28;20467;-74
2022/05/30 03:09:06;;;;;;;14.68;4.93;;;13.60;73.20;;;;;;5099072;28;20024;-73
2022/05/30 03:11:33;;;;;;;11.25;5.05;;;13.60;73.50;;;;;;5106748;28;20363;-75
2022/05/30 03:13:59;;;;;;;8.90;5.32;;;13.60;73.50;;;;;;5103550;28;20022;-74
2022/05/30 03:16:26;;;;;;;11.98;4.90;;;13.60;73.40;;;;;;5105571;28;20040;-73
2022/05/30 03:18:53;;;;;;;6.97;4.28;;;13.60;73.30;;;;;;5104188;28;20437;-76
2022/05/30 03:21:20;;;;;;;7.50;4.05;;;13.60;73.30;;;;;;5104920;28;20478;-76
2022/05/30 03:23:46;;;;;;;10.25;5.47;;;13.60;73.30;;;;;;5082672;28;20023;-74
2022/05/30 03:26:19;;;;;;;8.40;3.75;;;13.60;73.30;;;;;;5105354;28;20015;-73
2022/05/30 03:28:48;;;;;;;12.98;4.72;;;13.50;73.30;;;;;;5086002;28;20107;-73
2022/05/30 03:31:15;;;;;;;9.85;3.83;;;13.50;73.10;;;;;;5099303;28;20027;-73
2022/05/30 03:33:45;;;;;;;6.90;3.05;;;13.50;73.10;;;;;;5107651;28;20015;-74
2022/05/30 03:36:15;;;;;;;9.40;3.60;;;13.50;73.10;;;;;;5102562;28;20024;-71
2022/05/30 03:38:41;;;;;;;7.88;2.63;;;13.50;73.20;;;;;;5104908;28;20027;-74
2022/05/30 03:41:08;;;;;;;8.30;2.35;;;13.50;73.30;;;;;;5104920;28;20016;-72
2022/05/30 03:43:34;;;;;;;8.43;3.00;;;13.50;73.30;;;;;;5082137;28;20028;-75
2022/05/30 03:46:01;;;;;;;5.18;2.80;;;13.50;73.20;;;;;;5105058;28;20096;-73
2022/05/30 03:48:28;;;;;;;8.10;2.85;;;13.50;73.20;;;;;;5100547;28;20371;-73
2022/05/30 03:50:54;;;;;;;8.90;2.72;;;13.50;73.20;;;;;;5104140;28;20036;-73
2022/05/30 03:53:21;;;;;;;8.68;3.72;;;13.40;73.10;;;;;;5099752;28;20035;-67
2022/05/30 03:56:27;;;;;;;6.97;3.90;;;13.50;73.10;;;;;;5103517;28;20021;-73
2022/05/30 03:59:33;;;;;;;7.70;3.03;;;13.40;73.00;;;;;;5103031;28;20130;-74
2022/05/30 04:02:39;;;;;;;6.78;3.38;;;13.40;72.90;;;;;;5096214;28;20028;-73
2022/05/30 04:05:06;;;;;;;6.93;3.10;;;13.40;72.70;;;;;;5100479;28;20012;-74
2022/05/30 04:07:32;;;;;;;10.52;4.60;;;13.40;72.70;;;;;;5102717;28;20085;-72
2022/05/30 04:09:59;;;;;;;10.35;5.05;;;13.30;72.60;;;;;;5101796;28;20016;-74
2022/05/30 04:12:25;;;;;;;27.45;6.15;;;13.30;72.70;;;;;;5106642;28;20020;-73
2022/05/30 04:14:57;;;;;;;44.15;28.42;;;13.30;72.70;;;;;;5083069;28;20019;-70
2022/05/30 04:17:25;;;;;;;27.77;16.48;;;13.30;73.10;;;;;;5102299;28;20065;-71
2022/05/30 04:19:52;;;;;;;36.03;18.50;;;13.30;74.40;;;;;;5100974;28;20048;-69
2022/05/30 04:22:20;;;;;;;25.63;11.80;;;13.30;75.10;;;;;;5102879;28;20107;-69
2022/05/30 04:25:00;;;;;;;14.38;7.60;;;13.30;74.70;;;;;;5101816;28;20035;-68
2022/05/30 04:27:28;;;;;;;12.70;5.75;;;13.30;73.70;;;;;;5102876;28;20490;-71
2022/05/30 04:29:54;;;;;;;8.88;3.90;;;13.30;73.30;;;;;;5107553;28;20031;-70
2022/05/30 04:32:22;;;;;;;11.00;4.40;;;13.30;73.00;;;;;;5104455;28;20401;-69
2022/05/30 04:34:49;;;;;;;12.32;5.22;;;13.30;73.00;;;;;;5100253;28;20020;-71
2022/05/30 04:37:15;;;;;;;9.93;3.75;;;13.20;73.00;;;;;;5097788;28;20042;-67
2022/05/30 04:39:42;;;;;;;10.65;3.72;;;13.20;72.90;;;;;;5102455;28;20051;-65
2022/05/30 04:42:09;;;;;;;8.82;3.58;;;13.20;73.00;;;;;;5100122;28;20031;-66
2022/05/30 04:44:35;;;;;;;6.85;4.10;;;13.20;72.90;;;;;;5101236;28;20044;-65
2022/05/30 04:47:02;;;;;;;8.25;3.72;;;13.20;73.00;;;;;;5101256;28;20046;-67
2022/05/30 04:49:29;;;;;;;10.18;4.88;;;13.20;73.00;;;;;;5102408;28;20419;-71
2022/05/30 04:51:55;;;;;;;9.10;4.82;;;13.20;73.00;;;;;;5107054;28;20051;-69
2022/05/30 04:54:22;;;;;;;9.82;4.93;;;13.20;73.10;;;;;;5082073;28;20387;-67
2022/05/30 04:56:49;;;;;;;6.57;3.55;;;13.10;73.20;;;;;;5100917;28;20035;-65
2022/05/30 04:59:15;;;;;;;9.38;3.13;;;13.20;73.40;;;;;;5101785;28;20935;-65
2022/05/30 05:01:42;;;;;;;11.07;3.15;;;13.10;73.40;;;;;;5101480;28;20035;-65
2022/05/30 05:04:11;;;;;;;9.13;3.45;;;13.10;73.30;;;;;;5104372;28;20095;-69
2022/05/30 05:06:39;;;;;;;8.80;3.28;;;13.10;73.40;;;;;;5102023;28;20034;-65
2022/05/30 05:09:28;;;;;;;7.82;3.67;;;13.10;73.30;;;;;;5098702;28;20031;-68
2022/05/30 05:11:54;;;;;;;8.82;3.92;;;13.00;73.20;;;;;;5099652;28;20059;-64
2022/05/30 05:14:20;;;;;;;12.57;3.63;;;13.00;73.20;;;;;;5102025;28;20533;-65
2022/05/30 05:16:47;;;;;;;11.00;4.32;;;13.00;73.20;;;;;;5101035;28;20039;-67
2022/05/30 05:19:13;;;;;;;7.00;3.92;;;13.00;73.30;;;;;;5106322;28;20020;-66
2022/05/30 05:21:43;;;;;;;7.75;3.72;;;13.00;73.20;;;;;;5103454;28;20398;-67
2022/05/30 05:24:10;;;;;;;8.65;3.53;;;13.00;73.20;;;;;;5103212;28;20106;-67
2022/05/30 05:26:44;;;;;;;10.32;3.70;;;13.00;73.10;;;;;;5099512;28;20039;-66
2022/05/30 05:29:11;;;;;;;8.80;4.10;;;13.00;73.10;;;;;;5099175;28;20024;-67
2022/05/30 05:31:38;;;;;;;9.07;4.80;;;13.00;73.40;;;;;;5103373;28;20023;-67
2022/05/30 05:34:07;;;;;;;18.58;4.72;;;13.00;73.60;;;;;;5101553;28;20043;-66
2022/05/30 05:36:38;;;;;;;16.95;5.30;;;12.90;73.80;;;;;;5097814;28;20039;-68
2022/05/30 05:39:05;;;;;;;10.45;5.35;;;13.00;74.00;;;;;;5096379;28;20040;-65
2022/05/30 05:41:35;;;;;;;28.80;4.97;;;13.00;74.10;;;;;;5102481;28;20024;-68
2022/05/30 05:44:02;;;;;;;10.00;4.53;;;13.00;74.40;;;;;;5101762;28;20093;-65
2022/05/30 05:47:08;;;;;;;11.88;4.93;;;13.00;74.70;;;;;;5101001;28;20038;-65
2022/05/30 05:50:16;;;;;;;14.55;5.57;;;13.00;74.60;;;;;;5096263;28;20121;-66
2022/05/30 05:53:22;;;;;;;9.27;4.30;;;13.00;74.60;;;;;;5104354;28;20016;-65
2022/05/30 05:56:33;;;;;;;7.22;4.95;;;12.90;74.60;;;;;;5103781;28;20488;-66
2022/05/30 05:59:40;;;;;;;9.85;5.43;;;13.00;74.60;;;;;;5100078;28;20503;-66
2022/05/30 06:02:46;;;;;;;9.95;5.38;;;13.00;74.70;;;;;;5101207;28;20436;-67
2022/05/30 06:05:49;;;;;;;14.25;5.22;;;12.90;74.70;;;;;;5100095;28;20020;-65
2022/05/30 06:08:15;;;;;;;12.02;4.35;;;12.90;74.60;;;;;;5085536;28;20123;-69
2022/05/30 06:11:27;;;;;;;16.58;6.78;;;12.90;74.60;;;;;;5098983;28;20016;-65
2022/05/30 06:13:28;;;;;;;10.13;4.50;;;12.90;74.80;;;;;;5086837;28;20031;-66
2022/05/30 06:15:55;;;;;;;8.82;4.78;;;12.90;74.80;;;;;;5098472;28;20015;-66
2022/05/30 06:18:21;;;;;;;15.18;7.25;;;12.90;74.80;;;;;;5104049;28;20051;-66
2022/05/30 06:20:48;;;;;;;18.90;6.03;;;12.90;75.00;;;;;;5098957;28;20379;-67
2022/05/30 06:23:14;;;;;;;9.05;5.53;;;12.90;75.20;;;;;;5100555;28;20924;-69
2022/05/30 06:25:42;;;;;;;11.10;5.75;;;12.90;75.20;;;;;;5107007;28;20456;-69
2022/05/30 06:28:09;;;;;;;11.40;4.93;;;12.80;75.40;;;;;;5096985;28;20023;-69
2022/05/30 06:30:38;;;;;;;12.88;5.43;;;12.80;75.60;;;;;;5101656;28;20619;-65
2022/05/30 06:33:05;;;;;;;12.45;5.38;;;12.90;75.90;;;;;;5102981;28;20032;-67
2022/05/30 06:35:31;;;;;;;11.82;4.88;;;12.90;76.10;;;;;;5092893;28;20114;-69
2022/05/30 06:37:58;;;;;;;12.20;5.40;;;12.90;76.30;;;;;;5080743;28;20031;-69
2022/05/30 06:40:25;;;;;;;10.27;6.63;;;12.90;76.40;;;;;;5084134;28;20035;-66
2022/05/30 06:42:52;;;;;;;18.73;6.75;;;12.90;76.50;;;;;;5101073;28;20135;-70
2022/05/30 06:45:18;;;;;;;17.83;7.10;;;12.90;76.60;;;;;;5104032;28;20039;-67
2022/05/30 06:47:45;;;;;;;14.95;7.38;;;12.90;76.90;;;;;;5109023;28;20016;-66
2022/05/30 06:50:11;;;;;;;17.15;6.40;;;12.90;77.00;;;;;;5088868;28;20150;-65
2022/05/30 06:52:38;;;;;;;10.93;6.13;;;12.90;77.00;;;;;;5106177;28;20026;-65
2022/05/30 06:55:05;;;;;;;10.85;6.38;;;12.90;77.00;;;;;;5097879;28;20020;-69
2022/05/30 07:00:16;;;;;;;16.25;7.75;;;12.90;77.40;;;;;;5105980;28;20035;-65
2022/05/30 07:02:44;;;;;;;18.88;7.57;;;13.00;77.80;;;;;;5100863;28;20039;-67
2022/05/30 07:05:11;;;;;;;19.33;7.32;;;13.00;77.90;;;;;;5105574;28;20072;-67
2022/05/30 07:07:40;;;;;;;25.70;7.43;;;13.00;78.00;;;;;;5107031;28;20031;-69
2022/05/30 07:10:07;;;;;;;20.27;8.30;;;13.00;78.30;;;;;;5105941;28;20103;-67
2022/05/30 07:12:34;;;;;;;20.17;8.60;;;13.00;78.40;;;;;;5105944;28;20055;-68
2022/05/30 07:15:00;;;;;;;13.25;8.20;;;13.10;78.50;;;;;;5104123;28;20065;-67
2022/05/30 07:17:27;;;;;;;19.90;6.82;;;13.10;78.50;;;;;;5100494;28;20036;-67
2022/05/30 07:19:54;;;;;;;15.38;7.63;;;13.10;78.70;;;;;;5107650;28;22373;-68
2022/05/30 07:22:20;;;;;;;16.33;6.82;;;13.10;78.80;;;;;;5104290;28;20008;-69
2022/05/30 07:24:46;;;;;;;11.88;6.20;;;13.10;79.00;;;;;;5103685;28;20115;-66
2022/05/30 07:27:13;;;;;;;13.82;6.95;;;13.20;79.20;;;;;;5100758;28;20019;-69
2022/05/30 07:29:40;;;;;;;12.98;4.25;;;13.20;79.40;;;;;;5107808;28;20026;-67
2022/05/30 07:32:07;;;;;;;12.75;5.72;;;13.30;79.50;;;;;;5105361;28;20060;-64
2022/05/30 07:34:34;;;;;;;10.63;3.92;;;13.30;79.60;;;;;;5103940;28;20031;-67
2022/05/30 07:37:00;;;;;;;16.30;4.20;;;13.30;79.70;;;;;;5109127;28;20032;-68
2022/05/30 07:39:27;;;;;;;11.18;4.53;;;13.40;80.00;;;;;;5100441;28;20479;-65
2022/05/30 07:41:53;;;;;;;11.05;4.10;;;13.40;80.20;;;;;;5102055;28;20028;-67
2022/05/30 07:44:20;;;;;;;13.55;3.08;;;13.40;80.20;;;;;;5104352;28;20052;-65
2022/05/30 07:46:46;;;;;;;10.40;3.22;;;13.50;80.30;;;;;;5102832;28;20027;-67
2022/05/30 07:49:14;;;;;;;7.47;2.70;;;13.50;80.20;;;;;;5107911;28;20058;-68
2022/05/30 07:51:42;;;;;;;7.22;2.53;;;13.50;80.00;;;;;;5102462;28;20019;-68
2022/05/30 07:54:08;;;;;;;4.95;2.00;;;13.60;79.80;;;;;;5104845;28;20028;-66
2022/05/30 07:56:35;;;;;;;10.80;2.42;;;13.70;79.70;;;;;;5099110;28;20067;-70
2022/05/30 07:59:01;;;;;;;6.18;1.38;;;13.70;79.60;;;;;;5096337;28;20026;-69
2022/05/30 08:01:27;;;;;;;8.88;2.55;;;13.80;79.60;;;;;;5106153;28;20072;-67
2022/05/30 08:03:54;;;;;;;5.72;1.80;;;13.80;79.60;;;;;;5106209;28;20038;-68
2022/05/30 08:06:26;;;;;;;6.07;1.50;;;13.80;79.50;;;;;;5104235;28;20065;-69
2022/05/30 08:08:54;;;;;;;5.22;1.67;;;13.90;79.40;;;;;;5106334;28;20039;-70
2022/05/30 08:11:21;;;;;;;8.90;2.40;;;13.90;79.30;;;;;;5094872;28;20027;-69
2022/05/30 08:13:48;;;;;;;6.38;2.08;;;14.00;79.00;;;;;;5106054;28;20051;-67
2022/05/30 08:16:21;;;;;;;8.63;1.75;;;14.00;78.80;;;;;;5096981;28;20015;-70
2022/05/30 08:18:48;;;;;;;4.82;1.55;;;14.10;78.60;;;;;;5101107;28;20038;-70
2022/05/30 08:21:16;;;;;;;5.43;1.38;;;14.10;78.10;;;;;;5102618;28;20489;-69
2022/05/30 08:23:42;;;;;;;3.72;1.60;;;14.10;77.90;;;;;;5106382;28;20030;-68
2022/05/30 08:26:10;;;;;;;7.22;2.17;;;14.20;77.60;;;;;;5101698;28;20053;-67
2022/05/30 08:28:37;;;;;;;5.68;1.30;;;14.20;77.50;;;;;;5102980;28;20497;-70
2022/05/30 08:31:03;;;;;;;3.67;1.95;;;14.30;77.50;;;;;;5097864;28;20032;-70
2022/05/30 08:33:31;;;;;;;6.88;1.90;;;14.30;77.40;;;;;;5100586;28;20047;-68
2022/05/30 08:36:07;;;;;;;5.38;1.98;;;14.30;77.00;;;;;;5103416;28;20094;-70
2022/05/30 08:38:36;;;;;;;8.82;1.58;;;14.40;76.60;;;;;;5102514;28;20040;-66
2022/05/30 08:43:56;;;;;;;7.97;2.25;;;14.40;76.50;;;;;;5105524;28;20450;-66
2022/05/30 08:46:23;;;;;;;4.32;2.00;;;14.50;76.60;;;;;;5103443;28;20031;-70
2022/05/30 08:49:09;;;;;;;7.35;2.60;;;14.50;76.60;;;;;;5099117;28;20032;-69
2022/05/30 08:51:57;;;;;;;10.05;2.25;;;14.70;76.50;;;;;;5101413;28;20114;-70
2022/05/30 08:54:30;;;;;;;6.00;1.60;;;14.70;76.80;;;;;;5105999;28;20028;-68
2022/05/30 08:57:00;;;;;;;6.93;1.67;;;14.70;76.50;;;;;;5100659;28;20089;-69
2022/05/30 08:59:55;;;;;;;8.15;2.75;;;14.80;76.60;;;;;;5100015;28;20020;-71
2022/05/30 09:02:24;;;;;;;4.30;1.35;;;14.90;76.70;;;;;;5104183;28;20016;-67
2022/05/30 09:04:56;;;;;;;9.65;2.58;;;14.90;76.30;;;;;;5101919;28;20024;-66
2022/05/30 09:07:27;;;;;;;3.20;1.65;;;14.90;75.80;;;;;;5106462;28;20046;-70
2022/05/30 09:10:00;;;;;;;9.95;2.22;;;14.90;75.50;;;;;;5100944;28;20028;-70
2022/05/30 09:12:42;;;;;;;5.50;1.85;;;15.00;75.70;;;;;;5102818;28;20020;-70
2022/05/30 09:15:35;;;;;;;7.80;2.00;;;15.10;75.90;;;;;;5104440;28;20024;-70
2022/05/30 09:18:04;;;;;;;8.27;1.73;;;15.10;75.90;;;;;;5101748;28;20079;-69
2022/05/30 09:20:32;;;;;;;5.80;1.77;;;15.20;75.70;;;;;;5097482;28;20020;-70
2022/05/30 09:23:02;;;;;;;6.32;1.83;;;15.20;75.30;;;;;;5104333;28;20058;-71
2022/05/30 09:25:56;;;;;;;6.13;2.05;;;15.20;74.70;;;;;;5101032;28;20012;-68
2022/05/30 09:28:39;;;;;;;13.57;3.50;;;15.30;74.30;;;;;;5105571;28;20378;-70
2022/05/30 09:31:17;;;;;;;6.22;2.35;;;15.30;74.00;;;;;;5103303;28;20024;-67
2022/05/30 09:33:48;;;;;;;5.85;1.50;;;15.40;73.60;;;;;;5085218;28;20034;-69
2022/05/30 09:36:19;;;;;;;8.68;2.00;;;15.50;73.00;;;;;;5103531;28;20197;-66
2022/05/30 09:38:48;;;;;;;7.85;1.98;;;15.50;72.60;;;;;;5102999;28;20505;-69
2022/05/30 09:41:22;;;;;;;4.32;1.45;;;15.60;72.60;;;;;;5101272;28;20019;-70
2022/05/30 09:43:53;;;;;;;7.93;1.50;;;15.60;72.20;;;;;;5098143;28;20023;-68
2022/05/30 09:46:31;;;;;;;6.10;2.17;;;15.70;71.50;;;;;;5099950;28;20058;-66
2022/05/30 09:49:04;;;;;;;8.02;1.77;;;15.70;70.70;;;;;;5097496;28;20054;-68
2022/05/30 09:51:42;;;;;;;9.90;1.65;;;15.80;71.10;;;;;;5099536;28;20103;-67
2022/05/30 09:54:23;;;;;;;9.50;2.63;;;15.90;71.00;;;;;;5106255;28;20417;-69
2022/05/30 09:56:52;;;;;;;6.80;1.52;;;16.00;70.80;;;;;;5102657;28;20043;-67
2022/05/30 09:59:18;;;;;;;7.90;1.63;;;16.00;70.60;;;;;;5103980;28;20020;-66
2022/05/30 10:02:25;;;;;;;7.47;1.33;;;16.10;70.60;;;;;;5098724;28;20034;-65
2022/05/30 10:05:08;;;;;;;7.82;1.65;;;16.20;70.40;;;;;;5079552;28;20019;-67
2022/05/30 10:07:35;;;;;;;6.20;1.83;;;16.20;70.10;;;;;;5096110;28;20051;-69
2022/05/30 10:10:09;;;;;;;9.65;1.73;;;16.30;70.00;;;;;;5100901;28;20027;-69
2022/05/30 10:12:41;;;;;;;5.47;1.77;;;16.30;68.30;;;;;;5101758;28;20020;-69
2022/05/30 10:15:31;;;;;;;5.97;1.80;;;16.40;67.50;;;;;;5106174;28;20008;-70
2022/05/30 10:18:19;;;;;;;5.13;1.70;;;16.40;65.80;;;;;;5105325;28;20112;-70
2022/05/30 10:21:05;;;;;;;8.73;2.08;;;16.40;64.90;;;;;;5100884;28;20040;-67
2022/05/30 10:29:51;;;;;;;7.80;1.70;;;16.60;63.60;;;;;;5108114;28;20066;-65
2022/05/30 10:32:36;;;;;;;8.25;1.80;;;16.60;63.30;;;;;;5105043;28;20022;-68
2022/05/30 10:35:05;;;;;;;9.48;1.92;;;16.70;62.20;;;;;;5104119;28;20213;-68
2022/05/30 10:37:41;;;;;;;6.50;1.70;;;16.70;61.40;;;;;;5101093;28;20470;-66
2022/05/30 10:40:18;;;;;;;7.70;1.60;;;16.80;61.10;;;;;;5103645;28;20027;-66
2022/05/30 10:43:10;;;;;;;8.90;1.80;;;16.80;61.40;;;;;;5107506;28;20058;-65
2022/05/30 10:45:57;;;;;;;4.53;1.77;;;16.80;61.80;;;;;;5107199;28;20118;-67
2022/05/30 10:48:34;;;;;;;9.30;1.98;;;16.80;62.00;;;;;;5107904;28;20107;-68
2022/05/30 10:51:26;;;;;;;10.55;2.58;;;16.80;61.40;;;;;;5104751;28;20020;-65
2022/05/30 10:54:16;;;;;;;10.88;2.08;;;16.90;61.70;;;;;;5102642;28;20027;-69
2022/05/30 10:56:49;;;;;;;9.65;1.88;;;16.90;61.30;;;;;;5101579;28;20059;-67
2022/05/30 10:59:36;;;;;;;7.28;1.63;;;16.90;61.10;;;;;;5109529;28;20060;-66
2022/05/30 11:02:39;;;;;;;10.13;2.35;;;17.00;61.20;;;;;;5105169;28;20020;-66
2022/05/30 11:05:18;;;;;;;7.45;1.63;;;17.00;61.10;;;;;;5103079;28;20181;-66
2022/05/30 11:07:54;;;;;;;8.02;2.00;;;17.00;61.40;;;;;;5104277;28;20020;-69
2022/05/30 11:10:20;;;;;;;9.13;2.58;;;17.00;61.30;;;;;;5104230;28;20024;-68
2022/05/30 11:12:59;;;;;;;6.95;2.10;;;17.10;61.30;;;;;;5103390;28;20024;-67
2022/05/30 11:15:49;;;;;;;10.88;2.20;;;17.10;61.10;;;;;;5100134;28;20022;-69
2022/05/30 11:18:20;;;;;;;6.20;1.52;;;17.10;61.10;;;;;;5106608;28;20075;-69
2022/05/30 11:21:17;;;;;;;8.43;1.55;;;17.20;60.90;;;;;;5102088;28;20049;-69
2022/05/30 11:24:23;;;;;;;5.70;1.92;;;17.20;61.20;;;;;;5098599;28;20031;-69
2022/05/30 11:28:00;;;;;;;4.32;1.63;;;17.30;61.30;;;;;;5106522;28;20075;-70
2022/05/30 11:30:32;;;;;;;8.23;2.33;;;17.30;60.80;;;;;;5102738;28;20362;-68
2022/05/30 11:33:21;;;;;;;6.30;1.90;;;17.40;60.70;;;;;;5101374;28;20036;-66
2022/05/30 11:36:15;;;;;;;11.88;2.33;;;17.40;60.40;;;;;;5100983;28;20030;-70
2022/05/30 11:38:46;;;;;;;10.95;1.95;;;17.50;60.60;;;;;;5103206;28;20084;-69
2022/05/30 11:41:23;;;;;;;6.65;1.35;;;17.50;60.60;;;;;;5099927;28;20771;-67
2022/05/30 11:44:17;;;;;;;9.75;2.78;;;17.60;60.50;;;;;;5100773;28;20028;-69
2022/05/30 11:47:03;;;;;;;7.68;1.98;;;17.60;59.80;;;;;;5103464;28;20027;-65
2022/05/30 11:49:36;;;;;;;6.00;2.20;;;17.60;59.80;;;;;;5102280;28;20119;-70
2022/05/30 11:52:32;;;;;;;12.80;3.72;;;17.70;59.80;;;;;;5101732;28;20032;-67
2022/05/30 11:55:16;;;;;;;;;;;17.70;60.00;;;;;;5104845;28;20026;-68
2022/05/30 11:58:11;;;;;;;4.82;1.83;;;17.80;60.10;;;;;;5100433;28;20553;-66
2022/05/30 12:00:47;;;;;;;8.82;2.10;;;17.80;59.80;;;;;;5102029;28;20038;-68
2022/05/30 12:03:29;;;;;;;9.77;2.25;;;17.90;59.90;;;;;;5084244;28;20439;-68
2022/05/30 12:06:09;;;;;;;10.15;2.28;;;17.90;60.10;;;;;;5100565;28;20406;-68
2022/05/30 12:09:07;;;;;;;13.85;2.45;;;17.90;59.80;;;;;;5103180;28;20974;-69
2022/05/30 12:11:41;;;;;;;7.68;2.55;;;17.90;59.40;;;;;;5100640;28;20028;-66
2022/05/30 12:14:26;;;;;;;5.82;1.75;;;18.00;59.20;;;;;;5106306;28;20062;-69
2022/05/30 12:17:22;;;;;;;7.38;1.48;;;18.00;59.10;;;;;;5099038;28;20038;-66
2022/05/30 12:25:38;;;;;;;6.30;1.65;;;18.10;58.90;;;;;;5102454;28;20107;-65
2022/05/30 12:28:26;;;;;;;7.45;2.53;;;18.10;59.20;;;;;;5100903;28;20020;-69
2022/05/30 12:31:04;;;;;;;8.63;1.92;;;18.10;59.50;;;;;;5103963;28;20028;-67
2022/05/30 12:33:33;;;;;;;6.15;1.67;;;18.10;59.30;;;;;;5098200;28;20023;-65
2022/05/30 12:36:09;;;;;;;6.75;1.63;;;18.10;59.30;;;;;;5102155;28;20072;-69
2022/05/30 12:39:01;;;;;;;10.77;2.03;;;18.10;58.70;;;;;;5083955;28;20596;-69
2022/05/30 12:41:31;;;;;;;5.35;2.00;;;18.20;58.80;;;;;;5099202;28;20102;-70
2022/05/30 12:43:58;;;;;;;10.35;2.83;;;18.10;58.90;;;;;;5101689;28;20457;-67
2022/05/30 12:46:30;;;;;;;11.40;1.83;;;18.20;58.80;;;;;;5099130;28;20024;-66
2022/05/30 12:49:18;;;;;;;6.07;1.80;;;18.20;58.90;;;;;;5103805;28;20419;-67
2022/05/30 12:52:04;;;;;;;8.10;2.28;;;18.20;59.00;;;;;;5103097;28;20016;-68
2022/05/30 12:54:45;;;;;;;9.00;2.45;;;18.20;58.60;;;;;;5099805;28;20055;-69
2022/05/30 12:57:37;;;;;;;9.55;1.80;;;18.20;58.60;;;;;;5101841;28;20089;-68
2022/05/30 13:00:21;;;;;;;8.02;2.17;;;18.20;58.70;;;;;;5101390;28;20054;-66
2022/05/30 13:02:59;;;;;;;6.47;1.73;;;18.30;58.80;;;;;;5101501;28;20499;-66
2022/05/30 13:05:57;;;;;;;9.07;1.55;;;18.20;58.80;;;;;;5099281;28;20153;-68
2022/05/30 13:08:50;;;;;;;4.68;1.52;;;18.20;58.60;;;;;;5099115;28;20030;-66
2022/05/30 13:11:44;;;;;;;6.40;2.22;;;18.20;58.50;;;;;;5103442;28;20092;-68
2022/05/30 13:14:20;;;;;;;7.80;1.88;;;18.20;58.70;;;;;;5099218;28;20078;-66
2022/05/30 13:16:48;;;;;;;10.63;2.30;;;18.20;58.80;;;;;;5101511;28;20039;-67
2022/05/30 13:19:16;;;;;;;4.53;1.27;;;18.20;58.70;;;;;;5106270;28;20026;-68
2022/05/30 13:21:47;;;;;;;6.15;1.55;;;18.20;58.80;;;;;;5102342;28;20043;-67
2022/05/30 13:24:36;;;;;;;6.43;1.65;;;18.20;59.20;;;;;;5099139;28;20073;-67
2022/05/30 13:27:42;;;;;;;18.92;2.58;;;18.20;59.40;;;;;;5097992;28;20466;-70
2022/05/30 13:30:48;;;;;;;8.48;2.13;;;18.20;59.70;;;;;;5097288;28;20034;-68
2022/05/30 13:34:00;;;;;;;9.15;1.65;;;18.20;59.70;;;;;;5099096;28;20831;-68
2022/05/30 13:37:09;;;;;;;6.13;1.23;;;18.10;59.80;;;;;;5098089;28;20076;-69
2022/05/30 13:40:15;;;;;;;9.07;2.83;;;18.20;59.90;;;;;;5098187;28;20114;-65
2022/05/30 13:43:20;;;;;;;7.47;1.92;;;18.10;59.80;;;;;;5096150;28;20073;-68
2022/05/30 13:45:47;;;;;;;4.90;1.80;;;18.10;59.80;;;;;;5095573;28;20926;-70